sensor_id;sensor_type;location;lat;lon;timestamp;temperature;humidity
16825;DHT22;8529;48.108;-1.706;2023-01-29T00:01:34;5.50;99.90
16825;DHT22;8529;48.108;-1.706;2023-01-29T00:04:03;5.50;99.90
16825;DHT22;8529;48.108;-1.706;2023-01-29T00:06:30;5.50;99.90
16825;DHT22;8529;48.108;-1.706;2023-01-29T00:08:57;5.50;99.90
16825;DHT22;8529;48.108;-1.706;2023-01-29T00:11:24;5.50;99.90
16825;DHT22;8529;48.108;-1.706;2023-01-29T00:13:51;5.50;99.90
16825;DHT22;8529;48.108;-1.706;2023-01-29T00:16:18;5.50;99.90
16825;DHT22;8529;48.108;-1.706;2023-01-29T00:18:45;5.50;99.90
16825;DHT22;8529;48.108;-1.706;2023-01-29T00:21:15;5.50;99.90
16825;DHT22;8529;48.108;-1.706;2023-01-29T00:23:43;5.50;99.90
16825;DHT22;8529;48.108;-1.706;2023-01-29T00:26:10;5.50;99.90
16825;DHT22;8529;48.108;-1.706;2023-01-29T00:28:38;5.50;99.90
16825;DHT22;8529;48.108;-1.706;2023-01-29T00:31:08;5.50;99.90
16825;DHT22;8529;48.108;-1.706;2023-01-29T00:33:36;5.50;99.90
16825;DHT22;8529;48.108;-1.706;2023-01-29T00:36:03;5.50;99.90
16825;DHT22;8529;48.108;-1.706;2023-01-29T00:38:33;5.50;99.90
16825;DHT22;8529;48.108;-1.706;2023-01-29T00:41:05;5.50;99.90
16825;DHT22;8529;48.108;-1.706;2023-01-29T00:43:49;5.50;99.90
16825;DHT22;8529;48.108;-1.706;2023-01-29T00:46:33;5.50;99.90
16825;DHT22;8529;48.108;-1.706;2023-01-29T00:49:00;5.50;99.90
16825;DHT22;8529;48.108;-1.706;2023-01-29T00:51:27;5.50;99.90
16825;DHT22;8529;48.108;-1.706;2023-01-29T00:53:56;5.50;99.90
16825;DHT22;8529;48.108;-1.706;2023-01-29T00:56:23;5.50;99.90
16825;DHT22;8529;48.108;-1.706;2023-01-29T00:58:50;5.50;99.90
16825;DHT22;8529;48.108;-1.706;2023-01-29T01:01:17;5.50;99.90
16825;DHT22;8529;48.108;-1.706;2023-01-29T01:04:06;5.40;99.90
16825;DHT22;8529;48.108;-1.706;2023-01-29T01:06:32;5.50;99.90
16825;DHT22;8529;48.108;-1.706;2023-01-29T01:09:00;5.40;99.90
16825;DHT22;8529;48.108;-1.706;2023-01-29T01:11:45;5.50;99.90
16825;DHT22;8529;48.108;-1.706;2023-01-29T01:14:12;5.50;99.90
16825;DHT22;8529;48.108;-1.706;2023-01-29T01:16:39;5.50;99.90
16825;DHT22;8529;48.108;-1.706;2023-01-29T01:19:06;5.40;99.90
16825;DHT22;8529;48.108;-1.706;2023-01-29T01:21:33;5.40;99.90
16825;DHT22;8529;48.108;-1.706;2023-01-29T01:24:01;5.40;99.90
16825;DHT22;8529;48.108;-1.706;2023-01-29T01:26:30;5.40;99.90
16825;DHT22;8529;48.108;-1.706;2023-01-29T01:28:57;5.40;99.90
16825;DHT22;8529;48.108;-1.706;2023-01-29T01:31:24;5.30;99.90
16825;DHT22;8529;48.108;-1.706;2023-01-29T01:33:51;5.30;99.90
16825;DHT22;8529;48.108;-1.706;2023-01-29T01:36:18;5.30;99.90
16825;DHT22;8529;48.108;-1.706;2023-01-29T01:38:45;5.30;99.90
16825;DHT22;8529;48.108;-1.706;2023-01-29T01:41:16;5.30;99.90
16825;DHT22;8529;48.108;-1.706;2023-01-29T01:43:48;5.30;99.90
16825;DHT22;8529;48.108;-1.706;2023-01-29T01:46:16;5.30;99.90
16825;DHT22;8529;48.108;-1.706;2023-01-29T01:48:44;5.30;99.90
16825;DHT22;8529;48.108;-1.706;2023-01-29T01:51:12;5.30;99.90
16825;DHT22;8529;48.108;-1.706;2023-01-29T01:53:42;5.30;99.90
16825;DHT22;8529;48.108;-1.706;2023-01-29T01:56:15;5.40;99.90
16825;DHT22;8529;48.108;-1.706;2023-01-29T01:58:46;5.40;99.90
16825;DHT22;8529;48.108;-1.706;2023-01-29T02:01:15;5.40;99.90
16825;DHT22;8529;48.108;-1.706;2023-01-29T02:03:46;5.30;99.90
16825;DHT22;8529;48.108;-1.706;2023-01-29T02:06:32;5.40;99.90
16825;DHT22;8529;48.108;-1.706;2023-01-29T02:09:21;5.40;99.90
16825;DHT22;8529;48.108;-1.706;2023-01-29T02:12:02;5.40;99.90
16825;DHT22;8529;48.108;-1.706;2023-01-29T02:14:29;5.30;99.90
16825;DHT22;8529;48.108;-1.706;2023-01-29T02:16:59;5.40;99.90
16825;DHT22;8529;48.108;-1.706;2023-01-29T02:19:38;5.40;99.90
16825;DHT22;8529;48.108;-1.706;2023-01-29T02:22:23;5.40;99.90
16825;DHT22;8529;48.108;-1.706;2023-01-29T02:25:16;5.40;99.90
16825;DHT22;8529;48.108;-1.706;2023-01-29T02:31:01;5.30;99.90
16825;DHT22;8529;48.108;-1.706;2023-01-29T02:33:43;5.30;99.90
16825;DHT22;8529;48.108;-1.706;2023-01-29T02:36:21;5.30;99.90
16825;DHT22;8529;48.108;-1.706;2023-01-29T02:38:59;5.30;99.90
16825;DHT22;8529;48.108;-1.706;2023-01-29T02:41:32;5.30;99.90
16825;DHT22;8529;48.108;-1.706;2023-01-29T02:44:05;5.30;99.90
16825;DHT22;8529;48.108;-1.706;2023-01-29T02:46:38;5.30;99.90
16825;DHT22;8529;48.108;-1.706;2023-01-29T02:49:19;5.30;99.90
16825;DHT22;8529;48.108;-1.706;2023-01-29T02:51:50;5.30;99.90
16825;DHT22;8529;48.108;-1.706;2023-01-29T02:54:26;5.30;99.90
16825;DHT22;8529;48.108;-1.706;2023-01-29T02:56:56;5.30;99.90
16825;DHT22;8529;48.108;-1.706;2023-01-29T02:59:30;5.40;99.90
16825;DHT22;8529;48.108;-1.706;2023-01-29T03:02:03;5.30;99.90
16825;DHT22;8529;48.108;-1.706;2023-01-29T03:04:33;5.30;99.90
16825;DHT22;8529;48.108;-1.706;2023-01-29T03:07:05;5.30;99.90
16825;DHT22;8529;48.108;-1.706;2023-01-29T03:09:38;5.30;99.90
16825;DHT22;8529;48.108;-1.706;2023-01-29T03:12:11;5.30;99.90
16825;DHT22;8529;48.108;-1.706;2023-01-29T03:14:56;5.30;99.90
16825;DHT22;8529;48.108;-1.706;2023-01-29T03:17:44;5.30;99.90
16825;DHT22;8529;48.108;-1.706;2023-01-29T03:20:16;5.30;99.90
16825;DHT22;8529;48.108;-1.706;2023-01-29T03:22:48;5.30;99.90
16825;DHT22;8529;48.108;-1.706;2023-01-29T03:25:20;5.30;99.90
16825;DHT22;8529;48.108;-1.706;2023-01-29T03:28:06;5.30;99.90
16825;DHT22;8529;48.108;-1.706;2023-01-29T03:30:55;5.20;99.90
16825;DHT22;8529;48.108;-1.706;2023-01-29T03:33:43;5.20;99.90
16825;DHT22;8529;48.108;-1.706;2023-01-29T03:36:16;5.20;99.90
16825;DHT22;8529;48.108;-1.706;2023-01-29T03:38:44;5.20;99.90
16825;DHT22;8529;48.108;-1.706;2023-01-29T03:41:21;5.20;99.90
16825;DHT22;8529;48.108;-1.706;2023-01-29T03:43:54;5.20;99.90
16825;DHT22;8529;48.108;-1.706;2023-01-29T03:46:26;5.20;99.90
16825;DHT22;8529;48.108;-1.706;2023-01-29T03:49:00;5.20;99.90
16825;DHT22;8529;48.108;-1.706;2023-01-29T03:51:35;5.20;99.90
16825;DHT22;8529;48.108;-1.706;2023-01-29T03:54:08;5.20;99.90
16825;DHT22;8529;48.108;-1.706;2023-01-29T03:56:52;5.20;99.90
16825;DHT22;8529;48.108;-1.706;2023-01-29T03:59:30;5.20;99.90
16825;DHT22;8529;48.108;-1.706;2023-01-29T04:02:02;5.20;99.90
16825;DHT22;8529;48.108;-1.706;2023-01-29T04:04:32;5.20;99.90
16825;DHT22;8529;48.108;-1.706;2023-01-29T04:07:12;5.20;99.90
16825;DHT22;8529;48.108;-1.706;2023-01-29T04:09:44;5.20;99.90
16825;DHT22;8529;48.108;-1.706;2023-01-29T04:12:14;5.20;99.90
16825;DHT22;8529;48.108;-1.706;2023-01-29T04:14:42;5.20;99.90
16825;DHT22;8529;48.108;-1.706;2023-01-29T04:17:16;5.20;99.90
16825;DHT22;8529;48.108;-1.706;2023-01-29T04:19:44;5.20;99.90
16825;DHT22;8529;48.108;-1.706;2023-01-29T04:22:16;5.20;99.90
16825;DHT22;8529;48.108;-1.706;2023-01-29T04:24:47;5.20;99.90
16825;DHT22;8529;48.108;-1.706;2023-01-29T04:27:22;5.20;99.90
16825;DHT22;8529;48.108;-1.706;2023-01-29T04:30:05;5.20;99.90
16825;DHT22;8529;48.108;-1.706;2023-01-29T04:32:45;5.20;99.90
16825;DHT22;8529;48.108;-1.706;2023-01-29T04:35:25;5.20;99.90
16825;DHT22;8529;48.108;-1.706;2023-01-29T04:38:05;5.20;99.90
16825;DHT22;8529;48.108;-1.706;2023-01-29T04:40:38;5.20;99.90
16825;DHT22;8529;48.108;-1.706;2023-01-29T04:43:14;5.30;99.90
16825;DHT22;8529;48.108;-1.706;2023-01-29T04:45:49;5.20;99.90
16825;DHT22;8529;48.108;-1.706;2023-01-29T04:48:23;5.20;99.90
16825;DHT22;8529;48.108;-1.706;2023-01-29T04:50:56;5.20;99.90
16825;DHT22;8529;48.108;-1.706;2023-01-29T04:53:27;5.20;99.90
16825;DHT22;8529;48.108;-1.706;2023-01-29T04:56:02;5.20;99.90
16825;DHT22;8529;48.108;-1.706;2023-01-29T04:58:35;5.20;99.90
16825;DHT22;8529;48.108;-1.706;2023-01-29T05:01:05;5.20;99.90
16825;DHT22;8529;48.108;-1.706;2023-01-29T05:03:37;5.20;99.90
16825;DHT22;8529;48.108;-1.706;2023-01-29T05:06:07;5.20;99.90
16825;DHT22;8529;48.108;-1.706;2023-01-29T05:08:36;5.20;99.90
16825;DHT22;8529;48.108;-1.706;2023-01-29T05:11:05;5.20;99.90
16825;DHT22;8529;48.108;-1.706;2023-01-29T05:13:33;5.20;99.90
16825;DHT22;8529;48.108;-1.706;2023-01-29T05:16:07;5.20;99.90
16825;DHT22;8529;48.108;-1.706;2023-01-29T05:18:36;5.20;99.90
16825;DHT22;8529;48.108;-1.706;2023-01-29T05:21:06;5.20;99.90
16825;DHT22;8529;48.108;-1.706;2023-01-29T05:23:33;5.20;99.90
16825;DHT22;8529;48.108;-1.706;2023-01-29T05:26:01;5.20;99.90
16825;DHT22;8529;48.108;-1.706;2023-01-29T05:28:28;5.20;99.90
16825;DHT22;8529;48.108;-1.706;2023-01-29T05:30:55;5.20;99.90
16825;DHT22;8529;48.108;-1.706;2023-01-29T05:33:24;5.20;99.90
16825;DHT22;8529;48.108;-1.706;2023-01-29T05:35:53;5.20;99.90
16825;DHT22;8529;48.108;-1.706;2023-01-29T05:38:21;5.20;99.90
16825;DHT22;8529;48.108;-1.706;2023-01-29T05:40:48;5.20;99.90
16825;DHT22;8529;48.108;-1.706;2023-01-29T05:43:17;5.20;99.90
16825;DHT22;8529;48.108;-1.706;2023-01-29T05:45:51;5.20;99.90
16825;DHT22;8529;48.108;-1.706;2023-01-29T05:48:19;5.20;99.90
16825;DHT22;8529;48.108;-1.706;2023-01-29T05:50:46;5.20;99.90
16825;DHT22;8529;48.108;-1.706;2023-01-29T05:53:14;5.20;99.90
16825;DHT22;8529;48.108;-1.706;2023-01-29T05:55:43;5.20;99.90
16825;DHT22;8529;48.108;-1.706;2023-01-29T05:58:10;5.20;99.90
16825;DHT22;8529;48.108;-1.706;2023-01-29T06:00:37;5.20;99.90
16825;DHT22;8529;48.108;-1.706;2023-01-29T06:03:04;5.20;99.90
16825;DHT22;8529;48.108;-1.706;2023-01-29T06:05:31;5.20;99.90
16825;DHT22;8529;48.108;-1.706;2023-01-29T06:07:58;5.20;99.90
16825;DHT22;8529;48.108;-1.706;2023-01-29T06:10:26;5.20;99.90
16825;DHT22;8529;48.108;-1.706;2023-01-29T06:12:53;5.20;99.90
16825;DHT22;8529;48.108;-1.706;2023-01-29T06:15:20;5.20;99.90
16825;DHT22;8529;48.108;-1.706;2023-01-29T06:17:47;5.20;99.90
16825;DHT22;8529;48.108;-1.706;2023-01-29T06:20:14;5.20;99.90
16825;DHT22;8529;48.108;-1.706;2023-01-29T06:22:41;5.20;99.90
16825;DHT22;8529;48.108;-1.706;2023-01-29T06:25:08;5.20;99.90
16825;DHT22;8529;48.108;-1.706;2023-01-29T06:27:37;5.20;99.90
16825;DHT22;8529;48.108;-1.706;2023-01-29T06:30:04;5.30;99.90
16825;DHT22;8529;48.108;-1.706;2023-01-29T06:32:32;5.30;99.90
16825;DHT22;8529;48.108;-1.706;2023-01-29T06:34:59;5.20;99.90
16825;DHT22;8529;48.108;-1.706;2023-01-29T06:37:26;5.20;99.90
16825;DHT22;8529;48.108;-1.706;2023-01-29T06:39:53;5.20;99.90
16825;DHT22;8529;48.108;-1.706;2023-01-29T06:42:19;5.20;99.90
16825;DHT22;8529;48.108;-1.706;2023-01-29T06:44:53;5.20;99.90
16825;DHT22;8529;48.108;-1.706;2023-01-29T06:47:20;5.20;99.90
16825;DHT22;8529;48.108;-1.706;2023-01-29T06:49:47;5.20;99.90
16825;DHT22;8529;48.108;-1.706;2023-01-29T06:52:14;5.20;99.90
16825;DHT22;8529;48.108;-1.706;2023-01-29T06:54:41;5.20;99.90
16825;DHT22;8529;48.108;-1.706;2023-01-29T06:57:08;5.20;99.90
16825;DHT22;8529;48.108;-1.706;2023-01-29T06:59:35;5.20;99.90
16825;DHT22;8529;48.108;-1.706;2023-01-29T07:02:04;5.20;99.90
16825;DHT22;8529;48.108;-1.706;2023-01-29T07:04:31;5.20;99.90
16825;DHT22;8529;48.108;-1.706;2023-01-29T07:06:58;5.20;99.90
16825;DHT22;8529;48.108;-1.706;2023-01-29T07:09:25;5.20;99.90
16825;DHT22;8529;48.108;-1.706;2023-01-29T07:11:52;5.10;99.90
16825;DHT22;8529;48.108;-1.706;2023-01-29T07:14:19;5.10;99.90
16825;DHT22;8529;48.108;-1.706;2023-01-29T07:16:46;5.20;99.90
16825;DHT22;8529;48.108;-1.706;2023-01-29T07:19:14;5.20;99.90
16825;DHT22;8529;48.108;-1.706;2023-01-29T07:21:41;5.20;99.90
16825;DHT22;8529;48.108;-1.706;2023-01-29T07:24:08;5.20;99.90
16825;DHT22;8529;48.108;-1.706;2023-01-29T07:26:35;5.20;99.90
16825;DHT22;8529;48.108;-1.706;2023-01-29T07:29:03;5.20;99.90
16825;DHT22;8529;48.108;-1.706;2023-01-29T07:31:30;5.20;99.90
16825;DHT22;8529;48.108;-1.706;2023-01-29T07:33:57;5.20;99.90
16825;DHT22;8529;48.108;-1.706;2023-01-29T07:36:26;5.20;99.90
16825;DHT22;8529;48.108;-1.706;2023-01-29T07:38:53;5.10;99.90
16825;DHT22;8529;48.108;-1.706;2023-01-29T07:41:20;5.20;99.90
16825;DHT22;8529;48.108;-1.706;2023-01-29T07:43:47;5.20;99.90
16825;DHT22;8529;48.108;-1.706;2023-01-29T07:46:14;5.20;99.90
16825;DHT22;8529;48.108;-1.706;2023-01-29T07:48:41;5.20;99.90
16825;DHT22;8529;48.108;-1.706;2023-01-29T07:51:08;5.20;99.90
16825;DHT22;8529;48.108;-1.706;2023-01-29T07:53:36;5.20;99.90
16825;DHT22;8529;48.108;-1.706;2023-01-29T07:56:04;5.20;99.90
16825;DHT22;8529;48.108;-1.706;2023-01-29T07:58:31;5.20;99.90
16825;DHT22;8529;48.108;-1.706;2023-01-29T08:00:58;5.20;99.90
16825;DHT22;8529;48.108;-1.706;2023-01-29T08:03:25;5.20;99.90
16825;DHT22;8529;48.108;-1.706;2023-01-29T08:05:52;5.30;99.90
16825;DHT22;8529;48.108;-1.706;2023-01-29T08:08:18;5.20;99.90
16825;DHT22;8529;48.108;-1.706;2023-01-29T08:10:47;5.20;99.90
16825;DHT22;8529;48.108;-1.706;2023-01-29T08:13:14;5.20;99.90
16825;DHT22;8529;48.108;-1.706;2023-01-29T08:15:42;5.20;99.90
16825;DHT22;8529;48.108;-1.706;2023-01-29T08:18:10;5.20;99.90
16825;DHT22;8529;48.108;-1.706;2023-01-29T08:20:37;5.20;99.90
16825;DHT22;8529;48.108;-1.706;2023-01-29T08:23:06;5.20;99.90
16825;DHT22;8529;48.108;-1.706;2023-01-29T08:25:34;5.30;99.90
16825;DHT22;8529;48.108;-1.706;2023-01-29T08:28:03;5.30;99.90
16825;DHT22;8529;48.108;-1.706;2023-01-29T08:30:31;5.40;99.90
16825;DHT22;8529;48.108;-1.706;2023-01-29T08:32:59;5.40;99.90
16825;DHT22;8529;48.108;-1.706;2023-01-29T08:35:26;5.40;99.90
16825;DHT22;8529;48.108;-1.706;2023-01-29T08:37:53;5.40;99.90
16825;DHT22;8529;48.108;-1.706;2023-01-29T08:40:20;5.40;99.90
16825;DHT22;8529;48.108;-1.706;2023-01-29T08:42:47;5.40;99.90
16825;DHT22;8529;48.108;-1.706;2023-01-29T08:45:16;5.40;99.90
16825;DHT22;8529;48.108;-1.706;2023-01-29T08:47:46;5.40;99.90
16825;DHT22;8529;48.108;-1.706;2023-01-29T08:50:14;5.40;99.90
16825;DHT22;8529;48.108;-1.706;2023-01-29T08:52:41;5.40;99.90
16825;DHT22;8529;48.108;-1.706;2023-01-29T08:55:08;5.40;99.90
16825;DHT22;8529;48.108;-1.706;2023-01-29T08:57:36;5.40;99.90
16825;DHT22;8529;48.108;-1.706;2023-01-29T09:00:04;5.40;99.90
16825;DHT22;8529;48.108;-1.706;2023-01-29T09:02:33;5.40;99.90
16825;DHT22;8529;48.108;-1.706;2023-01-29T09:05:00;5.40;99.90
16825;DHT22;8529;48.108;-1.706;2023-01-29T09:07:28;5.40;99.90
16825;DHT22;8529;48.108;-1.706;2023-01-29T09:09:55;5.40;99.90
16825;DHT22;8529;48.108;-1.706;2023-01-29T09:12:22;5.40;99.90
16825;DHT22;8529;48.108;-1.706;2023-01-29T09:14:49;5.40;99.90
16825;DHT22;8529;48.108;-1.706;2023-01-29T09:17:16;5.50;99.90
16825;DHT22;8529;48.108;-1.706;2023-01-29T09:19:44;5.50;99.90
16825;DHT22;8529;48.108;-1.706;2023-01-29T09:22:11;5.50;99.90
16825;DHT22;8529;48.108;-1.706;2023-01-29T09:24:38;5.50;99.90
16825;DHT22;8529;48.108;-1.706;2023-01-29T09:27:05;5.50;99.90
16825;DHT22;8529;48.108;-1.706;2023-01-29T09:29:34;5.50;99.90
16825;DHT22;8529;48.108;-1.706;2023-01-29T09:32:02;5.50;99.90
16825;DHT22;8529;48.108;-1.706;2023-01-29T09:34:29;5.50;99.90
16825;DHT22;8529;48.108;-1.706;2023-01-29T09:36:57;5.50;99.90
16825;DHT22;8529;48.108;-1.706;2023-01-29T09:39:24;5.50;99.90
16825;DHT22;8529;48.108;-1.706;2023-01-29T09:41:57;5.50;99.90
16825;DHT22;8529;48.108;-1.706;2023-01-29T09:44:42;5.50;99.90
16825;DHT22;8529;48.108;-1.706;2023-01-29T09:47:13;5.60;99.90
16825;DHT22;8529;48.108;-1.706;2023-01-29T09:49:45;5.60;99.90
16825;DHT22;8529;48.108;-1.706;2023-01-29T09:52:17;5.60;99.90
16825;DHT22;8529;48.108;-1.706;2023-01-29T09:54:50;5.70;99.90
16825;DHT22;8529;48.108;-1.706;2023-01-29T09:57:26;5.70;99.90
16825;DHT22;8529;48.108;-1.706;2023-01-29T09:59:54;5.60;99.90
16825;DHT22;8529;48.108;-1.706;2023-01-29T10:02:40;5.60;99.90
16825;DHT22;8529;48.108;-1.706;2023-01-29T10:05:21;5.70;99.90
16825;DHT22;8529;48.108;-1.706;2023-01-29T10:08:15;5.60;99.90
16825;DHT22;8529;48.108;-1.706;2023-01-29T10:10:49;5.70;99.90
16825;DHT22;8529;48.108;-1.706;2023-01-29T10:13:24;5.70;99.90
16825;DHT22;8529;48.108;-1.706;2023-01-29T10:16:07;5.70;99.90
16825;DHT22;8529;48.108;-1.706;2023-01-29T10:18:57;5.70;99.90
16825;DHT22;8529;48.108;-1.706;2023-01-29T10:21:42;5.70;99.90
16825;DHT22;8529;48.108;-1.706;2023-01-29T10:24:23;5.70;99.90
16825;DHT22;8529;48.108;-1.706;2023-01-29T10:26:51;5.80;99.90
16825;DHT22;8529;48.108;-1.706;2023-01-29T10:29:19;5.80;99.90
16825;DHT22;8529;48.108;-1.706;2023-01-29T10:31:50;5.80;99.90
16825;DHT22;8529;48.108;-1.706;2023-01-29T10:34:24;5.80;99.90
16825;DHT22;8529;48.108;-1.706;2023-01-29T10:36:54;5.80;99.90
16825;DHT22;8529;48.108;-1.706;2023-01-29T10:39:25;5.80;99.90
16825;DHT22;8529;48.108;-1.706;2023-01-29T10:42:01;5.80;99.90
16825;DHT22;8529;48.108;-1.706;2023-01-29T10:44:39;5.80;99.90
16825;DHT22;8529;48.108;-1.706;2023-01-29T10:47:32;5.80;99.90
16825;DHT22;8529;48.108;-1.706;2023-01-29T10:50:30;5.80;99.90
16825;DHT22;8529;48.108;-1.706;2023-01-29T10:55:57;5.90;99.90
16825;DHT22;8529;48.108;-1.706;2023-01-29T10:58:33;5.90;99.90
16825;DHT22;8529;48.108;-1.706;2023-01-29T11:01:02;5.90;99.90
16825;DHT22;8529;48.108;-1.706;2023-01-29T11:03:31;5.90;99.90
16825;DHT22;8529;48.108;-1.706;2023-01-29T11:06:08;5.90;99.90
16825;DHT22;8529;48.108;-1.706;2023-01-29T11:08:41;6.00;99.90
16825;DHT22;8529;48.108;-1.706;2023-01-29T11:11:13;6.00;99.90
16825;DHT22;8529;48.108;-1.706;2023-01-29T11:13:44;6.00;99.90
16825;DHT22;8529;48.108;-1.706;2023-01-29T11:16:13;6.00;99.90
16825;DHT22;8529;48.108;-1.706;2023-01-29T11:18:52;6.00;99.90
16825;DHT22;8529;48.108;-1.706;2023-01-29T11:21:19;6.00;99.90
16825;DHT22;8529;48.108;-1.706;2023-01-29T11:23:47;6.10;99.90
16825;DHT22;8529;48.108;-1.706;2023-01-29T11:26:18;6.00;99.90
16825;DHT22;8529;48.108;-1.706;2023-01-29T11:28:48;6.00;99.90
16825;DHT22;8529;48.108;-1.706;2023-01-29T11:31:20;6.10;99.90
16825;DHT22;8529;48.108;-1.706;2023-01-29T11:33:50;6.10;99.90
16825;DHT22;8529;48.108;-1.706;2023-01-29T11:36:31;6.10;99.90
16825;DHT22;8529;48.108;-1.706;2023-01-29T11:39:18;6.10;99.90
16825;DHT22;8529;48.108;-1.706;2023-01-29T11:41:54;6.10;99.90
16825;DHT22;8529;48.108;-1.706;2023-01-29T11:44:27;6.10;99.90
16825;DHT22;8529;48.108;-1.706;2023-01-29T11:46:55;6.10;99.90
16825;DHT22;8529;48.108;-1.706;2023-01-29T11:49:30;6.10;99.90
16825;DHT22;8529;48.108;-1.706;2023-01-29T11:52:00;6.10;99.90
16825;DHT22;8529;48.108;-1.706;2023-01-29T11:54:31;6.10;99.90
16825;DHT22;8529;48.108;-1.706;2023-01-29T11:57:02;6.20;99.90
16825;DHT22;8529;48.108;-1.706;2023-01-29T11:59:37;6.20;99.90
16825;DHT22;8529;48.108;-1.706;2023-01-29T12:02:14;6.20;99.90
16825;DHT22;8529;48.108;-1.706;2023-01-29T12:04:43;6.30;99.90
16825;DHT22;8529;48.108;-1.706;2023-01-29T12:07:12;6.20;99.90
16825;DHT22;8529;48.108;-1.706;2023-01-29T12:09:40;6.20;99.90
16825;DHT22;8529;48.108;-1.706;2023-01-29T12:12:30;6.20;99.90
16825;DHT22;8529;48.108;-1.706;2023-01-29T12:15:14;6.20;99.90
16825;DHT22;8529;48.108;-1.706;2023-01-29T12:17:44;6.30;99.90
16825;DHT22;8529;48.108;-1.706;2023-01-29T12:20:16;6.30;99.90
16825;DHT22;8529;48.108;-1.706;2023-01-29T12:22:49;6.30;99.90
16825;DHT22;8529;48.108;-1.706;2023-01-29T12:25:21;6.40;99.90
16825;DHT22;8529;48.108;-1.706;2023-01-29T12:27:53;6.40;99.90
16825;DHT22;8529;48.108;-1.706;2023-01-29T12:30:27;6.50;99.90
16825;DHT22;8529;48.108;-1.706;2023-01-29T12:33:01;6.50;99.90
16825;DHT22;8529;48.108;-1.706;2023-01-29T12:35:34;6.50;99.90
16825;DHT22;8529;48.108;-1.706;2023-01-29T12:38:03;6.50;99.90
16825;DHT22;8529;48.108;-1.706;2023-01-29T12:40:37;6.50;99.90
16825;DHT22;8529;48.108;-1.706;2023-01-29T12:43:13;6.50;99.90
16825;DHT22;8529;48.108;-1.706;2023-01-29T12:45:42;6.50;99.90
16825;DHT22;8529;48.108;-1.706;2023-01-29T12:48:13;6.50;99.90
16825;DHT22;8529;48.108;-1.706;2023-01-29T12:50:41;6.50;99.90
16825;DHT22;8529;48.108;-1.706;2023-01-29T12:53:22;6.50;99.90
16825;DHT22;8529;48.108;-1.706;2023-01-29T12:55:53;6.50;99.90
16825;DHT22;8529;48.108;-1.706;2023-01-29T12:58:26;6.50;99.90
16825;DHT22;8529;48.108;-1.706;2023-01-29T13:00:59;6.50;99.90
16825;DHT22;8529;48.108;-1.706;2023-01-29T13:03:32;6.50;99.90
16825;DHT22;8529;48.108;-1.706;2023-01-29T13:06:02;6.50;99.90
16825;DHT22;8529;48.108;-1.706;2023-01-29T13:08:36;6.50;99.90
16825;DHT22;8529;48.108;-1.706;2023-01-29T13:11:08;6.50;99.90
16825;DHT22;8529;48.108;-1.706;2023-01-29T13:13:43;6.50;99.90
16825;DHT22;8529;48.108;-1.706;2023-01-29T13:16:18;6.50;99.90
16825;DHT22;8529;48.108;-1.706;2023-01-29T13:18:51;6.50;99.90
16825;DHT22;8529;48.108;-1.706;2023-01-29T13:21:21;6.50;99.90
16825;DHT22;8529;48.108;-1.706;2023-01-29T13:23:51;6.50;99.90
16825;DHT22;8529;48.108;-1.706;2023-01-29T13:26:20;6.50;99.90
16825;DHT22;8529;48.108;-1.706;2023-01-29T13:28:50;6.50;99.90
16825;DHT22;8529;48.108;-1.706;2023-01-29T13:31:26;6.50;99.90
16825;DHT22;8529;48.108;-1.706;2023-01-29T13:33:58;6.50;99.90
16825;DHT22;8529;48.108;-1.706;2023-01-29T13:36:29;6.50;99.90
16825;DHT22;8529;48.108;-1.706;2023-01-29T13:39:01;6.50;99.90
16825;DHT22;8529;48.108;-1.706;2023-01-29T13:41:36;6.50;99.90
16825;DHT22;8529;48.108;-1.706;2023-01-29T13:44:16;6.50;99.90
16825;DHT22;8529;48.108;-1.706;2023-01-29T13:46:49;6.50;99.90
16825;DHT22;8529;48.108;-1.706;2023-01-29T13:49:29;6.50;99.90
16825;DHT22;8529;48.108;-1.706;2023-01-29T13:51:57;6.50;99.90
16825;DHT22;8529;48.108;-1.706;2023-01-29T13:54:26;6.60;99.90
16825;DHT22;8529;48.108;-1.706;2023-01-29T13:56:59;6.60;99.90
16825;DHT22;8529;48.108;-1.706;2023-01-29T13:59:50;6.50;99.90
16825;DHT22;8529;48.108;-1.706;2023-01-29T14:02:22;6.50;99.90
16825;DHT22;8529;48.108;-1.706;2023-01-29T14:04:50;6.50;99.90
16825;DHT22;8529;48.108;-1.706;2023-01-29T14:07:49;6.50;99.90
16825;DHT22;8529;48.108;-1.706;2023-01-29T14:10:18;6.50;99.90
16825;DHT22;8529;48.108;-1.706;2023-01-29T14:12:47;6.50;99.90
16825;DHT22;8529;48.108;-1.706;2023-01-29T14:15:24;6.50;99.90
16825;DHT22;8529;48.108;-1.706;2023-01-29T14:18:01;6.50;99.90
16825;DHT22;8529;48.108;-1.706;2023-01-29T14:20:34;6.50;99.90
16825;DHT22;8529;48.108;-1.706;2023-01-29T14:23:03;6.50;99.90
16825;DHT22;8529;48.108;-1.706;2023-01-29T14:25:33;6.50;99.90
16825;DHT22;8529;48.108;-1.706;2023-01-29T14:28:01;6.50;99.90
16825;DHT22;8529;48.108;-1.706;2023-01-29T14:30:31;6.50;99.90
16825;DHT22;8529;48.108;-1.706;2023-01-29T14:33:01;6.50;99.90
16825;DHT22;8529;48.108;-1.706;2023-01-29T14:35:30;6.50;99.90
16825;DHT22;8529;48.108;-1.706;2023-01-29T14:38:01;6.50;99.90
16825;DHT22;8529;48.108;-1.706;2023-01-29T14:40:30;6.50;99.90
16825;DHT22;8529;48.108;-1.706;2023-01-29T14:43:01;6.50;99.90
16825;DHT22;8529;48.108;-1.706;2023-01-29T14:45:33;6.50;99.90
16825;DHT22;8529;48.108;-1.706;2023-01-29T14:51:11;6.50;99.90
16825;DHT22;8529;48.108;-1.706;2023-01-29T14:53:49;6.50;99.90
16825;DHT22;8529;48.108;-1.706;2023-01-29T14:56:25;6.50;99.90
16825;DHT22;8529;48.108;-1.706;2023-01-29T14:58:56;6.50;99.90
16825;DHT22;8529;48.108;-1.706;2023-01-29T15:01:32;6.50;99.90
16825;DHT22;8529;48.108;-1.706;2023-01-29T15:04:02;6.40;99.90
16825;DHT22;8529;48.108;-1.706;2023-01-29T15:06:35;6.50;99.90
16825;DHT22;8529;48.108;-1.706;2023-01-29T15:09:12;6.40;99.90
16825;DHT22;8529;48.108;-1.706;2023-01-29T15:11:47;6.50;99.90
16825;DHT22;8529;48.108;-1.706;2023-01-29T15:14:28;6.40;99.90
16825;DHT22;8529;48.108;-1.706;2023-01-29T15:17:02;6.40;99.90
16825;DHT22;8529;48.108;-1.706;2023-01-29T15:19:34;6.40;99.90
16825;DHT22;8529;48.108;-1.706;2023-01-29T15:22:03;6.40;99.90
16825;DHT22;8529;48.108;-1.706;2023-01-29T15:24:30;6.40;99.90
16825;DHT22;8529;48.108;-1.706;2023-01-29T15:26:57;6.40;99.90
16825;DHT22;8529;48.108;-1.706;2023-01-29T15:29:26;6.40;99.90
16825;DHT22;8529;48.108;-1.706;2023-01-29T15:31:54;6.40;99.90
16825;DHT22;8529;48.108;-1.706;2023-01-29T15:34:22;6.40;99.90
16825;DHT22;8529;48.108;-1.706;2023-01-29T15:36:50;6.40;99.90
16825;DHT22;8529;48.108;-1.706;2023-01-29T15:39:18;6.40;99.90
16825;DHT22;8529;48.108;-1.706;2023-01-29T15:41:47;6.40;99.90
16825;DHT22;8529;48.108;-1.706;2023-01-29T15:44:17;6.40;99.90
16825;DHT22;8529;48.108;-1.706;2023-01-29T15:46:48;6.40;99.90
16825;DHT22;8529;48.108;-1.706;2023-01-29T15:49:23;6.40;99.90
16825;DHT22;8529;48.108;-1.706;2023-01-29T15:51:55;6.40;99.90
16825;DHT22;8529;48.108;-1.706;2023-01-29T15:54:23;6.40;99.90
16825;DHT22;8529;48.108;-1.706;2023-01-29T15:56:52;6.40;99.90
16825;DHT22;8529;48.108;-1.706;2023-01-29T15:59:22;6.40;99.90
16825;DHT22;8529;48.108;-1.706;2023-01-29T16:01:50;6.40;99.90
16825;DHT22;8529;48.108;-1.706;2023-01-29T16:04:21;6.40;99.90
16825;DHT22;8529;48.108;-1.706;2023-01-29T16:06:52;6.40;99.90
16825;DHT22;8529;48.108;-1.706;2023-01-29T16:09:21;6.40;99.90
16825;DHT22;8529;48.108;-1.706;2023-01-29T16:11:49;6.40;99.90
16825;DHT22;8529;48.108;-1.706;2023-01-29T16:14:20;6.30;99.90
16825;DHT22;8529;48.108;-1.706;2023-01-29T16:16:50;6.30;99.90
16825;DHT22;8529;48.108;-1.706;2023-01-29T16:19:22;6.30;99.90
16825;DHT22;8529;48.108;-1.706;2023-01-29T16:21:55;6.40;99.90